Погода Можулевона неделю

Витебская область, Белоруссия

22 - 28 мая
  • 22мая
    Сегодня
    +14°
    +24°
    Пасмурно, дожди с грозами
    ВремяПогодаТемператураВлажностьДавлениеВетер, м/сВероятность осадков
    00:00Облачно с прояснениями+15°C86 %749 мм2.6 м/с2 %
    03:00Облачно с прояснениями+14°C89 %749 мм2.4 м/с2 %
    06:00Облачно с прояснениями+14°C90 %749 мм2.7 м/с2 %
    09:00Ясно и безоблачно+19°C73 %750 мм1.1 м/с2 %
    12:00Практически безоблачно+23°C54 %750 мм3.5 м/с4 %
    15:00Пасмурно, дожди с грозами+18°C79 %750 мм3.5 м/с38 %
    18:00Облачно с прояснениями+19°C76 %750 мм2.5 м/с44 %
    21:00Небольшая облачность+18°C83 %750 мм0.8 м/с7 %
  • 23мая
    Четверг
    +13°
    +24°
    Практически безоблачно
    ВремяПогодаТемператураВлажностьДавлениеВетер, м/сВероятность осадков
    00:00Ясно и безоблачно+15°C92 %751 мм3.1 м/с2 %
    03:00Ясно и безоблачно+15°C94 %751 мм3.3 м/с2 %
    06:00Ясно и безоблачно+15°C88 %752 мм4.3 м/с2 %
    09:00Ясно и безоблачно+18°C63 %753 мм1.8 м/с2 %
    12:00Практически безоблачно+22°C56 %753 мм5.3 м/с7 %
    15:00Практически безоблачно+23°C47 %753 мм4.8 м/с14 %
    18:00Ясно и безоблачно+22°C46 %753 мм4.5 м/с13 %
    21:00Ясно и безоблачно+18°C57 %754 мм1.1 м/с3 %
  • 24мая
    Пятница
    +11°
    +23°
    Практически безоблачно
    ВремяПогодаТемператураВлажностьДавлениеВетер, м/сВероятность осадков
    00:00Ясно и безоблачно+16°C60 %755 мм4.9 м/с2 %
    03:00Ясно и безоблачно+14°C62 %756 мм4.4 м/с2 %
    06:00Ясно и безоблачно+13°C64 %756 мм4.5 м/с2 %
    09:00Ясно и безоблачно+17°C56 %757 мм1.8 м/с2 %
    12:00Ясно и безоблачно+21°C48 %757 мм4.5 м/с2 %
    15:00Практически безоблачно+23°C45 %757 мм4.3 м/с3 %
    18:00Ясно и безоблачно+22°C45 %756 мм4.1 м/с2 %
    21:00Ясно и безоблачно+18°C58 %756 мм0.9 м/с2 %
  • 25мая
    Суббота
    +11°
    +24°
    Ясно и безоблачно
    ВремяПогодаТемператураВлажностьДавлениеВетер, м/сВероятность осадков
    00:00Ясно и безоблачно+15°C63 %756 мм3.5 м/с2 %
    03:00Ясно и безоблачно+13°C70 %756 мм3.2 м/с2 %
    06:00Ясно и безоблачно+13°C73 %756 мм3.3 м/с2 %
    09:00Ясно и безоблачно+18°C63 %756 мм1.1 м/с4 %
    12:00Ясно и безоблачно+23°C49 %756 мм2.5 м/с3 %
    15:00Ясно и безоблачно+24°C44 %755 мм2.8 м/с2 %
    18:00Практически безоблачно+23°C46 %754 мм2.5 м/с9 %
    21:00Ясно и безоблачно+18°C69 %753 мм0.6 м/с5 %
Мы используем cookies
Соглашаюсь